sensor_id;sensor_type;location;lat;lon;timestamp;pressure;altitude;pressure_sealevel;temperature;humidity
15529;BME280;7866;52.280;9.500;2023-04-24T00:01:13;98831.81;;;12.64;79.95
15529;BME280;7866;52.280;9.500;2023-04-24T00:06:16;98818.56;;;12.69;78.85
15529;BME280;7866;52.280;9.500;2023-04-24T00:11:18;98824.81;;;12.63;79.27
15529;BME280;7866;52.280;9.500;2023-04-24T00:16:20;98828.09;;;12.65;79.05
15529;BME280;7866;52.280;9.500;2023-04-24T00:21:23;98832.16;;;12.74;78.62
15529;BME280;7866;52.280;9.500;2023-04-24T00:26:25;98826.78;;;12.74;78.57
15529;BME280;7866;52.280;9.500;2023-04-24T00:31:27;98821.41;;;12.74;77.75
15529;BME280;7866;52.280;9.500;2023-04-24T00:36:30;98823.56;;;12.65;77.70
15529;BME280;7866;52.280;9.500;2023-04-24T00:41:32;98826.41;;;12.70;76.94
15529;BME280;7866;52.280;9.500;2023-04-24T00:46:34;98818.22;;;12.58;76.42
15529;BME280;7866;52.280;9.500;2023-04-24T00:51:38;98822.13;;;12.63;75.40
15529;BME280;7866;52.280;9.500;2023-04-24T00:56:41;98820.16;;;12.51;74.99
15529;BME280;7866;52.280;9.500;2023-04-24T01:01:43;98820.38;;;12.50;74.17
15529;BME280;7866;52.280;9.500;2023-04-24T01:06:48;98810.06;;;12.47;73.32
15529;BME280;7866;52.280;9.500;2023-04-24T01:11:51;98803.09;;;12.39;72.91
15529;BME280;7866;52.280;9.500;2023-04-24T01:16:53;98791.19;;;12.28;73.22
15529;BME280;7866;52.280;9.500;2023-04-24T01:21:58;98790.06;;;12.18;73.35
15529;BME280;7866;52.280;9.500;2023-04-24T01:27:02;98794.81;;;12.16;73.35
15529;BME280;7866;52.280;9.500;2023-04-24T01:32:04;98799.38;;;12.08;73.45
15529;BME280;7866;52.280;9.500;2023-04-24T01:37:06;98806.63;;;12.08;73.07
15529;BME280;7866;52.280;9.500;2023-04-24T01:42:09;98813.25;;;12.05;73.05
15529;BME280;7866;52.280;9.500;2023-04-24T01:47:12;98814.13;;;11.99;73.23
15529;BME280;7866;52.280;9.500;2023-04-24T01:52:14;98819.91;;;11.96;73.24
15529;BME280;7866;52.280;9.500;2023-04-24T01:57:17;98822.28;;;12.11;72.88
15529;BME280;7866;52.280;9.500;2023-04-24T02:02:19;98818.00;;;12.03;72.98
15529;BME280;7866;52.280;9.500;2023-04-24T02:07:21;98802.97;;;11.96;72.93
15529;BME280;7866;52.280;9.500;2023-04-24T02:12:24;98800.94;;;11.98;73.27
15529;BME280;7866;52.280;9.500;2023-04-24T02:17:26;98791.44;;;11.95;72.82
15529;BME280;7866;52.280;9.500;2023-04-24T02:22:27;98791.44;;;11.95;73.07
15529;BME280;7866;52.280;9.500;2023-04-24T02:27:30;98793.47;;;12.00;73.24
15529;BME280;7866;52.280;9.500;2023-04-24T02:32:32;98800.38;;;11.89;73.60
15529;BME280;7866;52.280;9.500;2023-04-24T02:37:34;98796.47;;;11.85;74.56
15529;BME280;7866;52.280;9.500;2023-04-24T02:42:37;98791.09;;;11.78;73.99
15529;BME280;7866;52.280;9.500;2023-04-24T02:47:38;98798.56;;;11.70;74.90
15529;BME280;7866;52.280;9.500;2023-04-24T02:52:40;98790.13;;;11.66;74.47
15529;BME280;7866;52.280;9.500;2023-04-24T02:57:43;98783.97;;;11.66;74.17
15529;BME280;7866;52.280;9.500;2023-04-24T03:02:45;98787.38;;;11.79;72.57
15529;BME280;7866;52.280;9.500;2023-04-24T03:07:46;98756.88;;;11.74;72.56
15529;BME280;7866;52.280;9.500;2023-04-24T03:12:49;98758.94;;;11.72;72.45
15529;BME280;7866;52.280;9.500;2023-04-24T03:17:51;98758.16;;;11.65;72.84
15529;BME280;7866;52.280;9.500;2023-04-24T03:22:53;98766.81;;;11.67;71.92
15529;BME280;7866;52.280;9.500;2023-04-24T03:27:56;98768.13;;;11.57;72.75
15529;BME280;7866;52.280;9.500;2023-04-24T03:32:58;98769.97;;;11.57;72.60
15529;BME280;7866;52.280;9.500;2023-04-24T03:38:00;98771.19;;;11.61;72.30
15529;BME280;7866;52.280;9.500;2023-04-24T03:43:03;98769.78;;;11.52;72.24
15529;BME280;7866;52.280;9.500;2023-04-24T03:48:04;98773.97;;;11.41;72.42
15529;BME280;7866;52.280;9.500;2023-04-24T03:53:06;98768.41;;;11.36;73.42
15529;BME280;7866;52.280;9.500;2023-04-24T03:58:09;98763.44;;;11.40;73.54
15529;BME280;7866;52.280;9.500;2023-04-24T04:03:11;98775.28;;;11.19;73.74
15529;BME280;7866;52.280;9.500;2023-04-24T04:08:13;98776.03;;;11.32;74.61
15529;BME280;7866;52.280;9.500;2023-04-24T04:13:16;98767.41;;;11.30;74.59
15529;BME280;7866;52.280;9.500;2023-04-24T04:18:18;98758.47;;;11.43;74.00
15529;BME280;7866;52.280;9.500;2023-04-24T04:23:19;98759.19;;;11.25;74.26
15529;BME280;7866;52.280;9.500;2023-04-24T04:28:22;98756.88;;;11.29;74.68
15529;BME280;7866;52.280;9.500;2023-04-24T04:33:24;98757.94;;;11.28;75.37
15529;BME280;7866;52.280;9.500;2023-04-24T04:38:26;98755.81;;;11.37;75.38
15529;BME280;7866;52.280;9.500;2023-04-24T04:43:31;98761.41;;;11.35;75.17
15529;BME280;7866;52.280;9.500;2023-04-24T04:48:34;98759.94;;;11.46;74.83
15529;BME280;7866;52.280;9.500;2023-04-24T04:53:35;98776.34;;;11.63;73.58
15529;BME280;7866;52.280;9.500;2023-04-24T04:58:38;98774.47;;;11.63;73.66
15529;BME280;7866;52.280;9.500;2023-04-24T05:03:58;98775.34;;;11.57;74.09
15529;BME280;7866;52.280;9.500;2023-04-24T05:09:00;98773.91;;;11.54;74.14
15529;BME280;7866;52.280;9.500;2023-04-24T05:14:03;98788.25;;;11.73;73.47
15529;BME280;7866;52.280;9.500;2023-04-24T05:19:05;98791.44;;;11.95;73.26
15529;BME280;7866;52.280;9.500;2023-04-24T05:24:06;98796.56;;;11.97;73.08
15529;BME280;7866;52.280;9.500;2023-04-24T05:29:09;98805.88;;;12.01;73.31
15529;BME280;7866;52.280;9.500;2023-04-24T05:34:12;98797.16;;;12.05;72.63
15529;BME280;7866;52.280;9.500;2023-04-24T05:39:14;98798.84;;;12.00;72.63
15529;BME280;7866;52.280;9.500;2023-04-24T05:44:17;98802.47;;;12.12;72.02
15529;BME280;7866;52.280;9.500;2023-04-24T05:49:19;98806.16;;;12.18;70.77
15529;BME280;7866;52.280;9.500;2023-04-24T05:54:20;98817.56;;;12.13;70.53
15529;BME280;7866;52.280;9.500;2023-04-24T05:59:23;98821.72;;;12.09;69.89
15529;BME280;7866;52.280;9.500;2023-04-24T06:04:25;98818.25;;;11.95;68.80
15529;BME280;7866;52.280;9.500;2023-04-24T06:09:27;98820.44;;;12.12;68.84
15529;BME280;7866;52.280;9.500;2023-04-24T06:14:30;98828.72;;;12.10;68.15
15529;BME280;7866;52.280;9.500;2023-04-24T06:19:32;98833.31;;;12.28;68.99
15529;BME280;7866;52.280;9.500;2023-04-24T06:24:33;98839.50;;;12.28;68.23
15529;BME280;7866;52.280;9.500;2023-04-24T06:29:37;98831.50;;;12.53;67.55
15529;BME280;7866;52.280;9.500;2023-04-24T06:34:38;98836.16;;;13.08;65.84
15529;BME280;7866;52.280;9.500;2023-04-24T06:39:40;98845.78;;;12.97;66.13
15529;BME280;7866;52.280;9.500;2023-04-24T06:44:43;98849.41;;;13.28;65.63
15529;BME280;7866;52.280;9.500;2023-04-24T06:49:45;98845.75;;;13.59;64.11
15529;BME280;7866;52.280;9.500;2023-04-24T06:54:47;98857.94;;;13.43;64.22
15529;BME280;7866;52.280;9.500;2023-04-24T06:59:50;98858.31;;;13.03;65.54
15529;BME280;7866;52.280;9.500;2023-04-24T07:04:51;98872.97;;;13.07;64.81
15529;BME280;7866;52.280;9.500;2023-04-24T07:09:53;98865.41;;;13.23;64.46
15529;BME280;7866;52.280;9.500;2023-04-24T07:14:57;98856.94;;;13.93;61.79
15529;BME280;7866;52.280;9.500;2023-04-24T07:19:59;98858.38;;;13.77;62.06
15529;BME280;7866;52.280;9.500;2023-04-24T07:25:01;98873.94;;;13.38;62.55
15529;BME280;7866;52.280;9.500;2023-04-24T07:30:05;98873.63;;;13.83;63.44
15529;BME280;7866;52.280;9.500;2023-04-24T07:35:08;98875.72;;;13.44;62.09
15529;BME280;7866;52.280;9.500;2023-04-24T07:40:11;98876.63;;;13.38;64.54
15529;BME280;7866;52.280;9.500;2023-04-24T07:45:14;98888.56;;;12.99;64.66
15529;BME280;7866;52.280;9.500;2023-04-24T07:50:16;98889.78;;;13.46;64.26
15529;BME280;7866;52.280;9.500;2023-04-24T07:55:18;98892.72;;;12.95;65.34
15529;BME280;7866;52.280;9.500;2023-04-24T08:00:21;98899.78;;;13.14;64.93
15529;BME280;7866;52.280;9.500;2023-04-24T08:05:22;98907.19;;;13.19;64.90
15529;BME280;7866;52.280;9.500;2023-04-24T08:10:25;98908.25;;;12.93;66.59
15529;BME280;7866;52.280;9.500;2023-04-24T08:15:28;98897.09;;;13.14;64.97
15529;BME280;7866;52.280;9.500;2023-04-24T08:20:30;98912.63;;;12.87;65.19
15529;BME280;7866;52.280;9.500;2023-04-24T08:25:32;98915.94;;;12.89;64.78
15529;BME280;7866;52.280;9.500;2023-04-24T08:30:36;98929.69;;;12.74;64.70
15529;BME280;7866;52.280;9.500;2023-04-24T08:35:38;98917.53;;;12.97;64.13
15529;BME280;7866;52.280;9.500;2023-04-24T08:40:40;98913.25;;;13.58;62.49
15529;BME280;7866;52.280;9.500;2023-04-24T08:45:43;98906.66;;;13.35;61.54
15529;BME280;7866;52.280;9.500;2023-04-24T08:50:45;98910.09;;;13.79;60.74
15529;BME280;7866;52.280;9.500;2023-04-24T08:55:48;98906.75;;;13.65;60.71
15529;BME280;7866;52.280;9.500;2023-04-24T09:00:51;98911.88;;;14.03;59.47
15529;BME280;7866;52.280;9.500;2023-04-24T09:05:54;98917.28;;;13.67;60.35
15529;BME280;7866;52.280;9.500;2023-04-24T09:10:56;98908.75;;;13.33;58.43
15529;BME280;7866;52.280;9.500;2023-04-24T09:16:04;98918.75;;;13.19;62.00
15529;BME280;7866;52.280;9.500;2023-04-24T09:21:07;98909.03;;;13.25;62.29
15529;BME280;7866;52.280;9.500;2023-04-24T09:26:09;98916.41;;;14.21;59.67
15529;BME280;7866;52.280;9.500;2023-04-24T09:31:14;98915.56;;;13.72;60.19
15529;BME280;7866;52.280;9.500;2023-04-24T09:36:18;98929.16;;;13.77;60.63
15529;BME280;7866;52.280;9.500;2023-04-24T09:41:19;98924.75;;;13.46;61.78
15529;BME280;7866;52.280;9.500;2023-04-24T09:46:29;98926.38;;;13.29;62.13
15529;BME280;7866;52.280;9.500;2023-04-24T09:51:35;98937.50;;;13.33;62.13
15529;BME280;7866;52.280;9.500;2023-04-24T09:56:42;98936.03;;;13.55;61.61
15529;BME280;7866;52.280;9.500;2023-04-24T10:01:46;98936.22;;;13.35;61.91
15529;BME280;7866;52.280;9.500;2023-04-24T10:06:50;98933.16;;;13.06;62.95
15529;BME280;7866;52.280;9.500;2023-04-24T10:11:53;98931.50;;;13.05;63.19
15529;BME280;7866;52.280;9.500;2023-04-24T10:16:57;98937.00;;;13.17;62.88
15529;BME280;7866;52.280;9.500;2023-04-24T10:22:00;98936.69;;;13.50;62.27
15529;BME280;7866;52.280;9.500;2023-04-24T10:27:03;98932.44;;;13.18;61.25
15529;BME280;7866;52.280;9.500;2023-04-24T10:32:07;98942.50;;;12.72;61.47
15529;BME280;7866;52.280;9.500;2023-04-24T10:37:10;98947.78;;;12.86;62.29
15529;BME280;7866;52.280;9.500;2023-04-24T10:42:14;98941.81;;;13.09;61.69
15529;BME280;7866;52.280;9.500;2023-04-24T10:47:17;98940.38;;;13.06;61.79
15529;BME280;7866;52.280;9.500;2023-04-24T10:52:19;98944.66;;;12.89;62.12
15529;BME280;7866;52.280;9.500;2023-04-24T10:57:28;98950.69;;;12.84;62.94
15529;BME280;7866;52.280;9.500;2023-04-24T11:02:37;98941.69;;;13.22;62.14
15529;BME280;7866;52.280;9.500;2023-04-24T11:08:10;98939.50;;;13.80;60.81
15529;BME280;7866;52.280;9.500;2023-04-24T11:13:15;98939.50;;;14.29;58.61
15529;BME280;7866;52.280;9.500;2023-04-24T11:18:18;98947.91;;;13.66;59.68
15529;BME280;7866;52.280;9.500;2023-04-24T11:23:20;98944.50;;;13.77;59.88
15529;BME280;7866;52.280;9.500;2023-04-24T11:28:24;98947.31;;;13.45;59.99
15529;BME280;7866;52.280;9.500;2023-04-24T11:33:27;98938.34;;;14.07;58.92
15529;BME280;7866;52.280;9.500;2023-04-24T11:38:29;98934.44;;;13.84;58.01
15529;BME280;7866;52.280;9.500;2023-04-24T11:43:31;98944.53;;;14.97;56.30
15529;BME280;7866;52.280;9.500;2023-04-24T11:48:35;98952.69;;;14.79;56.34
15529;BME280;7866;52.280;9.500;2023-04-24T11:53:40;98957.63;;;14.82;55.94
15529;BME280;7866;52.280;9.500;2023-04-24T11:58:42;98980.78;;;14.23;57.50
15529;BME280;7866;52.280;9.500;2023-04-24T12:03:49;98984.06;;;13.51;59.06
15529;BME280;7866;52.280;9.500;2023-04-24T12:08:52;98999.22;;;13.21;60.48
15529;BME280;7866;52.280;9.500;2023-04-24T12:13:55;99013.81;;;13.31;60.18
15529;BME280;7866;52.280;9.500;2023-04-24T12:18:58;98995.81;;;13.32;61.21
15529;BME280;7866;52.280;9.500;2023-04-24T12:24:01;99017.34;;;13.57;60.15
15529;BME280;7866;52.280;9.500;2023-04-24T12:29:03;99026.72;;;13.16;61.15
15529;BME280;7866;52.280;9.500;2023-04-24T12:34:17;99021.13;;;13.49;60.35
15529;BME280;7866;52.280;9.500;2023-04-24T12:39:19;99032.72;;;13.18;61.42
15529;BME280;7866;52.280;9.500;2023-04-24T12:44:30;99044.19;;;12.69;64.23
15529;BME280;7866;52.280;9.500;2023-04-24T12:49:35;99055.00;;;11.97;66.17
15529;BME280;7866;52.280;9.500;2023-04-24T12:54:37;99071.28;;;11.76;68.49
15529;BME280;7866;52.280;9.500;2023-04-24T12:59:39;99077.47;;;11.76;68.97
15529;BME280;7866;52.280;9.500;2023-04-24T13:04:43;99094.81;;;11.54;68.79
15529;BME280;7866;52.280;9.500;2023-04-24T13:09:47;99092.75;;;12.02;68.02
15529;BME280;7866;52.280;9.500;2023-04-24T13:14:49;99095.34;;;12.42;66.10
15529;BME280;7866;52.280;9.500;2023-04-24T13:19:54;99103.47;;;12.02;67.86
15529;BME280;7866;52.280;9.500;2023-04-24T13:24:56;99116.69;;;11.91;68.90
15529;BME280;7866;52.280;9.500;2023-04-24T13:29:58;99127.81;;;11.68;71.28
15529;BME280;7866;52.280;9.500;2023-04-24T13:35:01;99153.09;;;11.12;75.37
15529;BME280;7866;52.280;9.500;2023-04-24T13:40:04;99157.00;;;10.55;77.17
15529;BME280;7866;52.280;9.500;2023-04-24T13:45:08;99155.25;;;10.41;76.14
15529;BME280;7866;52.280;9.500;2023-04-24T13:50:11;99166.53;;;10.29;78.70
15529;BME280;7866;52.280;9.500;2023-04-24T13:55:13;99168.25;;;10.44;78.91
15529;BME280;7866;52.280;9.500;2023-04-24T14:00:16;99165.56;;;10.44;77.91
15529;BME280;7866;52.280;9.500;2023-04-24T14:05:19;99160.59;;;10.41;79.88
15529;BME280;7866;52.280;9.500;2023-04-24T14:10:22;99183.91;;;10.19;80.93
15529;BME280;7866;52.280;9.500;2023-04-24T14:15:23;99173.00;;;10.20;81.40
15529;BME280;7866;52.280;9.500;2023-04-24T14:20:26;99218.84;;;9.68;82.80
15529;BME280;7866;52.280;9.500;2023-04-24T14:25:28;99212.31;;;9.70;82.46
15529;BME280;7866;52.280;9.500;2023-04-24T14:30:30;99211.47;;;9.91;82.62
15529;BME280;7866;52.280;9.500;2023-04-24T14:35:33;99212.72;;;9.95;80.60
15529;BME280;7866;52.280;9.500;2023-04-24T14:40:35;99224.88;;;10.47;81.40
15529;BME280;7866;52.280;9.500;2023-04-24T14:45:37;99218.63;;;10.33;81.24
15529;BME280;7866;52.280;9.500;2023-04-24T14:50:42;99227.97;;;10.23;80.32
15529;BME280;7866;52.280;9.500;2023-04-24T14:55:44;99246.41;;;10.32;81.64
15529;BME280;7866;52.280;9.500;2023-04-24T15:00:45;99247.88;;;10.14;81.12
15529;BME280;7866;52.280;9.500;2023-04-24T15:05:51;99239.78;;;10.28;81.71
15529;BME280;7866;52.280;9.500;2023-04-24T15:10:53;99245.00;;;10.71;81.30
15529;BME280;7866;52.280;9.500;2023-04-24T15:15:55;99244.25;;;10.77;81.11
15529;BME280;7866;52.280;9.500;2023-04-24T15:20:58;99250.59;;;10.42;79.40
15529;BME280;7866;52.280;9.500;2023-04-24T15:25:59;99256.78;;;10.42;81.43
15529;BME280;7866;52.280;9.500;2023-04-24T15:31:01;99262.13;;;10.42;81.92
15529;BME280;7866;52.280;9.500;2023-04-24T15:36:05;99264.81;;;10.42;82.50
15529;BME280;7866;52.280;9.500;2023-04-24T15:41:06;99265.03;;;10.47;80.95
15529;BME280;7866;52.280;9.500;2023-04-24T15:46:25;99268.44;;;10.63;80.97
15529;BME280;7866;52.280;9.500;2023-04-24T15:51:28;99277.00;;;10.51;81.61
15529;BME280;7866;52.280;9.500;2023-04-24T15:56:30;99275.00;;;10.32;81.65
15529;BME280;7866;52.280;9.500;2023-04-24T16:01:32;99285.53;;;10.33;82.21
15529;BME280;7866;52.280;9.500;2023-04-24T16:06:35;99284.91;;;10.59;81.02
15529;BME280;7866;52.280;9.500;2023-04-24T16:11:37;99291.31;;;10.65;79.84
15529;BME280;7866;52.280;9.500;2023-04-24T16:16:38;99287.38;;;10.61;79.98
15529;BME280;7866;52.280;9.500;2023-04-24T16:21:41;99293.06;;;10.51;79.69
15529;BME280;7866;52.280;9.500;2023-04-24T16:26:43;99302.00;;;10.37;81.26
15529;BME280;7866;52.280;9.500;2023-04-24T16:31:45;99327.91;;;10.30;81.08
15529;BME280;7866;52.280;9.500;2023-04-24T16:36:48;99325.88;;;9.96;82.64
15529;BME280;7866;52.280;9.500;2023-04-24T16:41:49;99332.16;;;10.03;82.56
15529;BME280;7866;52.280;9.500;2023-04-24T16:46:52;99333.72;;;9.97;81.57
15529;BME280;7866;52.280;9.500;2023-04-24T16:51:55;99337.41;;;9.96;82.31
15529;BME280;7866;52.280;9.500;2023-04-24T16:56:56;99345.28;;;9.98;81.61
15529;BME280;7866;52.280;9.500;2023-04-24T17:01:59;99353.66;;;9.95;81.71
15529;BME280;7866;52.280;9.500;2023-04-24T17:07:02;99352.50;;;9.82;82.38
15529;BME280;7866;52.280;9.500;2023-04-24T17:12:04;99340.53;;;9.78;83.54
15529;BME280;7866;52.280;9.500;2023-04-24T17:17:07;99348.25;;;9.73;83.14
15529;BME280;7866;52.280;9.500;2023-04-24T17:22:10;99350.88;;;9.67;82.32
15529;BME280;7866;52.280;9.500;2023-04-24T17:27:11;99346.22;;;9.54;81.88
15529;BME280;7866;52.280;9.500;2023-04-24T17:32:13;99353.47;;;9.60;82.50
15529;BME280;7866;52.280;9.500;2023-04-24T17:37:16;99348.69;;;9.41;81.95
15529;BME280;7866;52.280;9.500;2023-04-24T17:42:22;99345.66;;;9.44;81.24
15529;BME280;7866;52.280;9.500;2023-04-24T17:47:23;99354.22;;;9.39;81.68
15529;BME280;7866;52.280;9.500;2023-04-24T17:52:27;99354.59;;;9.36;82.07
15529;BME280;7866;52.280;9.500;2023-04-24T17:57:30;99362.06;;;9.41;81.90
15529;BME280;7866;52.280;9.500;2023-04-24T18:02:32;99364.38;;;9.44;81.35
15529;BME280;7866;52.280;9.500;2023-04-24T18:07:36;99359.78;;;9.37;80.60
15529;BME280;7866;52.280;9.500;2023-04-24T18:12:38;99359.41;;;9.26;81.27
15529;BME280;7866;52.280;9.500;2023-04-24T18:17:40;99359.75;;;9.08;81.43
15529;BME280;7866;52.280;9.500;2023-04-24T18:22:43;99365.94;;;8.94;81.13
15529;BME280;7866;52.280;9.500;2023-04-24T18:27:45;99379.09;;;8.95;81.10
15529;BME280;7866;52.280;9.500;2023-04-24T18:32:47;99380.19;;;8.86;81.54
15529;BME280;7866;52.280;9.500;2023-04-24T18:37:51;99383.13;;;8.91;80.52
15529;BME280;7866;52.280;9.500;2023-04-24T18:42:52;99373.84;;;8.87;80.46
15529;BME280;7866;52.280;9.500;2023-04-24T18:47:55;99385.31;;;8.73;80.96
15529;BME280;7866;52.280;9.500;2023-04-24T18:52:58;99393.84;;;8.68;81.31
15529;BME280;7866;52.280;9.500;2023-04-24T18:58:00;99392.75;;;8.62;80.95
15529;BME280;7866;52.280;9.500;2023-04-24T19:03:01;99396.13;;;8.56;81.29
15529;BME280;7866;52.280;9.500;2023-04-24T19:08:04;99408.84;;;8.54;80.44
15529;BME280;7866;52.280;9.500;2023-04-24T19:13:06;99408.22;;;8.44;82.09
15529;BME280;7866;52.280;9.500;2023-04-24T19:18:07;99409.59;;;8.40;81.87
15529;BME280;7866;52.280;9.500;2023-04-24T19:23:10;99428.97;;;8.57;81.82
15529;BME280;7866;52.280;9.500;2023-04-24T19:28:12;99425.13;;;8.59;81.27
15529;BME280;7866;52.280;9.500;2023-04-24T19:33:14;99429.50;;;8.52;80.38
15529;BME280;7866;52.280;9.500;2023-04-24T19:38:17;99425.00;;;8.53;80.97
15529;BME280;7866;52.280;9.500;2023-04-24T19:43:19;99426.44;;;8.63;80.78
15529;BME280;7866;52.280;9.500;2023-04-24T19:48:21;99431.75;;;8.63;79.93
15529;BME280;7866;52.280;9.500;2023-04-24T19:53:24;99429.63;;;8.59;80.39
15529;BME280;7866;52.280;9.500;2023-04-24T19:58:25;99426.22;;;8.50;80.17
15529;BME280;7866;52.280;9.500;2023-04-24T20:03:29;99424.25;;;8.36;80.90
15529;BME280;7866;52.280;9.500;2023-04-24T20:08:33;99416.66;;;8.25;80.84
15529;BME280;7866;52.280;9.500;2023-04-24T20:13:38;99418.69;;;8.23;81.13
15529;BME280;7866;52.280;9.500;2023-04-24T20:18:39;99426.69;;;8.23;81.30
15529;BME280;7866;52.280;9.500;2023-04-24T20:23:42;99422.63;;;8.35;80.33
15529;BME280;7866;52.280;9.500;2023-04-24T20:28:44;99429.28;;;8.39;79.85
15529;BME280;7866;52.280;9.500;2023-04-24T20:33:46;99430.94;;;8.40;79.71
15529;BME280;7866;52.280;9.500;2023-04-24T20:38:49;99437.59;;;8.44;79.06
15529;BME280;7866;52.280;9.500;2023-04-24T20:43:51;99438.06;;;8.48;79.12
15529;BME280;7866;52.280;9.500;2023-04-24T20:48:52;99443.34;;;8.56;78.41
15529;BME280;7866;52.280;9.500;2023-04-24T20:53:55;99444.16;;;8.56;77.53
15529;BME280;7866;52.280;9.500;2023-04-24T20:58:57;99435.25;;;8.64;77.68
15529;BME280;7866;52.280;9.500;2023-04-24T21:03:59;99440.31;;;8.59;78.14
15529;BME280;7866;52.280;9.500;2023-04-24T21:09:02;99432.13;;;8.60;77.54
15529;BME280;7866;52.280;9.500;2023-04-24T21:14:04;99440.13;;;8.60;77.95
15529;BME280;7866;52.280;9.500;2023-04-24T21:19:06;99436.28;;;8.63;77.79
15529;BME280;7866;52.280;9.500;2023-04-24T21:24:09;99437.94;;;8.64;77.12
15529;BME280;7866;52.280;9.500;2023-04-24T21:29:10;99434.44;;;8.63;76.96
15529;BME280;7866;52.280;9.500;2023-04-24T21:34:12;99442.09;;;8.67;77.55
15529;BME280;7866;52.280;9.500;2023-04-24T21:39:15;99429.28;;;8.62;77.64
15529;BME280;7866;52.280;9.500;2023-04-24T21:44:17;99436.91;;;8.65;77.76
15529;BME280;7866;52.280;9.500;2023-04-24T21:49:19;99433.78;;;8.61;77.83
15529;BME280;7866;52.280;9.500;2023-04-24T21:54:22;99438.81;;;8.56;77.42
15529;BME280;7866;52.280;9.500;2023-04-24T21:59:24;99440.94;;;8.61;77.72
15529;BME280;7866;52.280;9.500;2023-04-24T22:04:25;99442.09;;;8.67;77.61
15529;BME280;7866;52.280;9.500;2023-04-24T22:09:29;99444.63;;;8.60;77.32
15529;BME280;7866;52.280;9.500;2023-04-24T22:14:30;99447.44;;;8.67;76.96
15529;BME280;7866;52.280;9.500;2023-04-24T22:19:32;99455.72;;;8.72;76.56
15529;BME280;7866;52.280;9.500;2023-04-24T22:30:31;99443.63;;;8.61;76.94
15529;BME280;7866;52.280;9.500;2023-04-24T22:35:33;99449.44;;;8.64;77.82
15529;BME280;7866;52.280;9.500;2023-04-24T22:46:34;99458.28;;;8.42;78.98
15529;BME280;7866;52.280;9.500;2023-04-24T22:51:36;99457.50;;;8.25;80.74
15529;BME280;7866;52.280;9.500;2023-04-24T22:56:39;99456.72;;;8.17;81.37
15529;BME280;7866;52.280;9.500;2023-04-24T23:01:42;99460.06;;;8.19;81.77
15529;BME280;7866;52.280;9.500;2023-04-24T23:06:44;99455.56;;;8.19;82.52
15529;BME280;7866;52.280;9.500;2023-04-24T23:11:46;99455.91;;;8.16;82.02
15529;BME280;7866;52.280;9.500;2023-04-24T23:16:49;99446.28;;;8.07;81.65
15529;BME280;7866;52.280;9.500;2023-04-24T23:21:50;99445.41;;;8.14;82.39
15529;BME280;7866;52.280;9.500;2023-04-24T23:26:52;99444.94;;;8.11;83.07
15529;BME280;7866;52.280;9.500;2023-04-24T23:31:55;99435.13;;;8.03;83.44
15529;BME280;7866;52.280;9.500;2023-04-24T23:36:57;99437.97;;;8.02;83.31
15529;BME280;7866;52.280;9.500;2023-04-24T23:41:58;99413.91;;;7.87;83.42
15529;BME280;7866;52.280;9.500;2023-04-24T23:47:03;99411.88;;;7.89;83.24
15529;BME280;7866;52.280;9.500;2023-04-24T23:52:04;99411.91;;;7.81;83.48
15529;BME280;7866;52.280;9.500;2023-04-24T23:57:06;99411.75;;;7.82;83.55
